METAR Data
IDs: Format: Raw Decoded Include TAF

Data at: 1535 UTC 16 Feb 2019

METAR for:KDAY (Dayton/Cox Intl, OH, US)
Text:KDAY 161456Z 04011KT 10SM OVC014 M05/M09 A3007 RMK AO2 SLP195 T10501089 51014
Temperature: -5.0°C ( 23°F)
Dewpoint: -8.9°C ( 16°F) [RH = 74%]
Pressure (altimeter):30.07 inches Hg (1018.4 mb) [Sea level pressure: 1019.5 mb]
Winds:from the NE (40 degrees) at 13 MPH (11 knots; 5.7 m/s)
Visibility:10 or more sm (16+ km)
Ceiling:1400 feet AGL
Clouds: overcast cloud deck at 1400 feet AGL